Lamia, Greece

4:30 PM EEST on March 26, 2017 (GMT +0300)
Mpotsari | | Change Station

Elev 308 ft 38.90 °N, 22.43 °E | Updated 7 minutes ago

Partly Cloudy
Partly Cloudy
73.6 °F
Feels Like 77 °F
N
3.1
Wind Variable Wind from NW
Gusts 8.7 mph

Today
High -- | Low -- °F
--% Chance of Precip.
Yesterday
High -- | Low -- °F
Precip. -- in
Pressure 29.80 in
Visibility -9999.0 miles
Clouds
Heat Index 77 °F
Dew Point 46 °F
Humidity 37%
Rainfall 0.00 in
Snow Depth Not available.
7:24 AM 7:48 PM
Waning Crescent, 3% visible
METAR LGBL 261320Z 08002KT CAVOK 21/11 Q1009
Pressure 29.80 in
Visibility -9999.0 miles
Clouds
Heat Index 77 °F
Dew Point 46 °F
Humidity 37%
Rainfall 0.00 in
Snow Depth Not available.
7:24 AM 7:48 PM
Waning Crescent, 3% visible
METAR LGBL 261320Z 08002KT CAVOK 21/11 Q1009

Get Severe Weather Alerts

Thanks for signing up!

Be on the lookout for a verification email in your inbox.

You'll start receiving the daily forecast at 8 AM.

×

10-Day Weather Forecast

×

Almanac

Astronomy

Mar. 26, 2017 Rise Set
Actual Time
Civil Twilight
Nautical Twilight
Astronomical Twilight
Moon
Length of Visible Light
Length of Day
Tomorrow will be .
, % of the Moon is Illuminated

Today's Extremes

Country Highs Country Lows

Community

WunderPhotos

Upload Photos

1,962,540 photos uploaded!

WunderBlog® & News

Nearby

Air Quality

  Air Quality AQ Index Pollutant
Not available.

Snow Depth

Station Depth Elevation

Earthquake Activity

City Distance Mag. Time & Date
Minimum magnitude displayed is 2.5.

Earthquake Activity

City Distance Mag. Time & Date
Minimum magnitude displayed is 2.5.

Coastal Water Temperatures

Place Temperature

Stations

Nearby Weather Stations

Station Location Temp. Windchill Dew Point Humidity Wind Precip. Elev Updated Type